Terminal Aerodrome Forecast
Issued by NWS

Home | Current Version | Previous Version | Text Only | Print | Product List | Glossary On
Versions: 1 2 3 4 5 6 7 8 9 10 11 12 13 14 15 16 17 18 19 20 21
680
FTUS41 KGYX 080524
TAFPSM
TAF
KPSM 080524Z 0806/0906 04013G20KT P6SM OVC030
     FM081500 02019G27KT 4SM -SN BR OVC015
      TEMPO 0815/0818 1 1/2SM -SN OVC010
     FM081800 01019G27KT 1/2SM SN FG OVC007=

USA.gov is the U.S. government's official web portal to all federal, state and local government web resources and services.